sensor_id;sensor_type;location;lat;lon;timestamp;temperature;humidity
12520;DHT22;6325;49.540;8.364;2022-11-21T00:01:25;9.10;99.90
12520;DHT22;6325;49.540;8.364;2022-11-21T00:03:58;8.70;99.90
12520;DHT22;6325;49.540;8.364;2022-11-21T00:06:44;9.30;99.90
12520;DHT22;6325;49.540;8.364;2022-11-21T00:09:26;8.70;99.90
12520;DHT22;6325;49.540;8.364;2022-11-21T00:12:24;9.00;99.90
12520;DHT22;6325;49.540;8.364;2022-11-21T00:14:59;8.40;99.90
12520;DHT22;6325;49.540;8.364;2022-11-21T00:17:30;8.40;99.90
12520;DHT22;6325;49.540;8.364;2022-11-21T00:20:00;8.50;99.90
12520;DHT22;6325;49.540;8.364;2022-11-21T00:22:30;8.60;99.90
12520;DHT22;6325;49.540;8.364;2022-11-21T00:24:58;9.00;99.90
12520;DHT22;6325;49.540;8.364;2022-11-21T00:27:27;8.40;99.90
12520;DHT22;6325;49.540;8.364;2022-11-21T00:29:55;8.90;99.90
12520;DHT22;6325;49.540;8.364;2022-11-21T00:32:24;8.80;99.90
12520;DHT22;6325;49.540;8.364;2022-11-21T00:34:54;8.50;99.90
12520;DHT22;6325;49.540;8.364;2022-11-21T00:37:23;9.20;99.90
12520;DHT22;6325;49.540;8.364;2022-11-21T00:39:50;9.30;99.90
12520;DHT22;6325;49.540;8.364;2022-11-21T00:42:18;8.50;99.90
12520;DHT22;6325;49.540;8.364;2022-11-21T00:44:49;8.80;99.90
12520;DHT22;6325;49.540;8.364;2022-11-21T00:47:20;8.40;99.90
12520;DHT22;6325;49.540;8.364;2022-11-21T00:49:50;8.20;99.90
12520;DHT22;6325;49.540;8.364;2022-11-21T00:52:24;9.20;99.90
12520;DHT22;6325;49.540;8.364;2022-11-21T00:54:54;9.10;99.90
12520;DHT22;6325;49.540;8.364;2022-11-21T00:57:24;8.80;99.90
12520;DHT22;6325;49.540;8.364;2022-11-21T00:59:53;8.30;99.90
12520;DHT22;6325;49.540;8.364;2022-11-21T01:02:22;8.90;99.90
12520;DHT22;6325;49.540;8.364;2022-11-21T01:04:50;8.40;99.90
12520;DHT22;6325;49.540;8.364;2022-11-21T01:07:20;8.40;99.90
12520;DHT22;6325;49.540;8.364;2022-11-21T01:09:48;8.60;99.90
12520;DHT22;6325;49.540;8.364;2022-11-21T01:12:18;8.30;99.90
12520;DHT22;6325;49.540;8.364;2022-11-21T01:15:04;7.70;99.90
12520;DHT22;6325;49.540;8.364;2022-11-21T01:17:37;8.50;99.90
12520;DHT22;6325;49.540;8.364;2022-11-21T01:20:22;8.40;99.90
12520;DHT22;6325;49.540;8.364;2022-11-21T01:23:17;7.90;99.90
12520;DHT22;6325;49.540;8.364;2022-11-21T01:26:05;8.30;99.90
12520;DHT22;6325;49.540;8.364;2022-11-21T01:28:55;7.90;99.90
12520;DHT22;6325;49.540;8.364;2022-11-21T01:31:42;7.80;99.90
12520;DHT22;6325;49.540;8.364;2022-11-21T01:34:32;7.70;99.90
12520;DHT22;6325;49.540;8.364;2022-11-21T01:37:18;7.20;99.90
12520;DHT22;6325;49.540;8.364;2022-11-21T01:40:16;7.90;99.90
12520;DHT22;6325;49.540;8.364;2022-11-21T01:43:05;7.60;99.90
12520;DHT22;6325;49.540;8.364;2022-11-21T01:46:20;7.80;99.90
12520;DHT22;6325;49.540;8.364;2022-11-21T01:49:11;7.00;99.90
12520;DHT22;6325;49.540;8.364;2022-11-21T01:52:14;7.20;99.90
12520;DHT22;6325;49.540;8.364;2022-11-21T01:55:02;7.00;99.90
12520;DHT22;6325;49.540;8.364;2022-11-21T01:58:07;7.30;99.90
12520;DHT22;6325;49.540;8.364;2022-11-21T02:00:58;7.50;99.90
12520;DHT22;6325;49.540;8.364;2022-11-21T02:03:40;7.20;99.90
12520;DHT22;6325;49.540;8.364;2022-11-21T02:06:24;7.70;99.90
12520;DHT22;6325;49.540;8.364;2022-11-21T02:09:25;7.70;99.90
12520;DHT22;6325;49.540;8.364;2022-11-21T02:12:08;7.30;99.90
12520;DHT22;6325;49.540;8.364;2022-11-21T02:15:04;7.20;99.90
12520;DHT22;6325;49.540;8.364;2022-11-21T02:17:57;8.10;99.90
12520;DHT22;6325;49.540;8.364;2022-11-21T02:20:55;7.20;99.90
12520;DHT22;6325;49.540;8.364;2022-11-21T02:23:48;7.70;99.90
12520;DHT22;6325;49.540;8.364;2022-11-21T02:26:41;7.70;99.90
12520;DHT22;6325;49.540;8.364;2022-11-21T02:29:24;7.60;99.90
12520;DHT22;6325;49.540;8.364;2022-11-21T02:32:21;7.60;99.90
12520;DHT22;6325;49.540;8.364;2022-11-21T02:35:29;7.20;99.90
12520;DHT22;6325;49.540;8.364;2022-11-21T02:38:18;7.40;99.90
12520;DHT22;6325;49.540;8.364;2022-11-21T02:41:26;7.40;99.90
12520;DHT22;6325;49.540;8.364;2022-11-21T02:44:23;8.10;99.90
12520;DHT22;6325;49.540;8.364;2022-11-21T02:47:18;7.60;99.90
12520;DHT22;6325;49.540;8.364;2022-11-21T02:50:13;7.50;99.90
12520;DHT22;6325;49.540;8.364;2022-11-21T02:53:08;7.80;99.90
12520;DHT22;6325;49.540;8.364;2022-11-21T02:55:56;8.30;99.90
12520;DHT22;6325;49.540;8.364;2022-11-21T02:58:45;7.60;99.90
12520;DHT22;6325;49.540;8.364;2022-11-21T03:01:41;8.30;99.90
12520;DHT22;6325;49.540;8.364;2022-11-21T03:04:30;8.20;99.90
12520;DHT22;6325;49.540;8.364;2022-11-21T03:07:23;8.00;99.90
12520;DHT22;6325;49.540;8.364;2022-11-21T03:10:04;8.10;99.90
12520;DHT22;6325;49.540;8.364;2022-11-21T03:12:44;8.30;99.90
12520;DHT22;6325;49.540;8.364;2022-11-21T03:15:42;7.80;99.90
12520;DHT22;6325;49.540;8.364;2022-11-21T03:18:44;8.10;99.90
12520;DHT22;6325;49.540;8.364;2022-11-21T03:21:40;8.20;99.90
12520;DHT22;6325;49.540;8.364;2022-11-21T03:24:42;7.50;99.90
12520;DHT22;6325;49.540;8.364;2022-11-21T03:27:32;7.80;99.90
12520;DHT22;6325;49.540;8.364;2022-11-21T03:30:28;8.00;99.90
12520;DHT22;6325;49.540;8.364;2022-11-21T03:33:22;8.50;99.90
12520;DHT22;6325;49.540;8.364;2022-11-21T03:36:15;8.10;99.90
12520;DHT22;6325;49.540;8.364;2022-11-21T03:39:23;8.30;99.90
12520;DHT22;6325;49.540;8.364;2022-11-21T03:42:19;8.30;99.90
12520;DHT22;6325;49.540;8.364;2022-11-21T03:45:23;8.50;99.90
12520;DHT22;6325;49.540;8.364;2022-11-21T03:48:27;8.60;99.90
12520;DHT22;6325;49.540;8.364;2022-11-21T03:51:14;8.40;99.90
12520;DHT22;6325;49.540;8.364;2022-11-21T03:53:58;7.60;99.90
12520;DHT22;6325;49.540;8.364;2022-11-21T03:56:58;7.90;99.90
12520;DHT22;6325;49.540;8.364;2022-11-21T03:59:56;7.40;99.90
12520;DHT22;6325;49.540;8.364;2022-11-21T04:02:45;7.70;99.90
12520;DHT22;6325;49.540;8.364;2022-11-21T04:05:43;7.60;99.90
12520;DHT22;6325;49.540;8.364;2022-11-21T04:08:46;7.70;99.90
12520;DHT22;6325;49.540;8.364;2022-11-21T04:11:24;7.70;99.90
12520;DHT22;6325;49.540;8.364;2022-11-21T04:14:22;7.50;99.90
12520;DHT22;6325;49.540;8.364;2022-11-21T04:17:12;7.30;99.90
12520;DHT22;6325;49.540;8.364;2022-11-21T04:20:01;8.10;99.90
12520;DHT22;6325;49.540;8.364;2022-11-21T04:22:57;7.50;99.90
12520;DHT22;6325;49.540;8.364;2022-11-21T04:25:40;8.00;99.90
12520;DHT22;6325;49.540;8.364;2022-11-21T04:28:13;7.50;99.90
12520;DHT22;6325;49.540;8.364;2022-11-21T04:30:52;8.20;99.90
12520;DHT22;6325;49.540;8.364;2022-11-21T04:33:27;7.70;99.90
12520;DHT22;6325;49.540;8.364;2022-11-21T04:35:57;8.40;99.90
12520;DHT22;6325;49.540;8.364;2022-11-21T04:38:25;7.80;99.90
12520;DHT22;6325;49.540;8.364;2022-11-21T04:40:57;7.50;99.90
12520;DHT22;6325;49.540;8.364;2022-11-21T04:43:27;7.90;99.90
12520;DHT22;6325;49.540;8.364;2022-11-21T04:45:56;7.90;99.90
12520;DHT22;6325;49.540;8.364;2022-11-21T04:48:30;8.30;99.90
12520;DHT22;6325;49.540;8.364;2022-11-21T04:51:12;8.30;99.90
12520;DHT22;6325;49.540;8.364;2022-11-21T04:54:15;8.10;99.90
12520;DHT22;6325;49.540;8.364;2022-11-21T04:57:07;8.50;99.90
12520;DHT22;6325;49.540;8.364;2022-11-21T05:00:23;7.90;99.90
12520;DHT22;6325;49.540;8.364;2022-11-21T05:03:10;8.70;99.90
12520;DHT22;6325;49.540;8.364;2022-11-21T05:06:03;7.90;99.90
12520;DHT22;6325;49.540;8.364;2022-11-21T05:08:54;8.30;99.90
12520;DHT22;6325;49.540;8.364;2022-11-21T05:11:43;8.70;99.90
12520;DHT22;6325;49.540;8.364;2022-11-21T05:14:33;8.10;99.90
12520;DHT22;6325;49.540;8.364;2022-11-21T05:17:07;7.80;99.90
12520;DHT22;6325;49.540;8.364;2022-11-21T05:20:04;8.20;99.90
12520;DHT22;6325;49.540;8.364;2022-11-21T05:22:42;8.00;99.90
12520;DHT22;6325;49.540;8.364;2022-11-21T05:25:24;8.20;99.90
12520;DHT22;6325;49.540;8.364;2022-11-21T05:28:03;8.60;99.90
12520;DHT22;6325;49.540;8.364;2022-11-21T05:30:49;8.20;99.90
12520;DHT22;6325;49.540;8.364;2022-11-21T05:33:32;8.10;99.90
12520;DHT22;6325;49.540;8.364;2022-11-21T05:36:07;8.40;99.90
12520;DHT22;6325;49.540;8.364;2022-11-21T05:38:39;7.80;99.90
12520;DHT22;6325;49.540;8.364;2022-11-21T05:41:10;8.40;99.90
12520;DHT22;6325;49.540;8.364;2022-11-21T05:43:54;7.70;99.90
12520;DHT22;6325;49.540;8.364;2022-11-21T05:46:25;8.10;99.90
12520;DHT22;6325;49.540;8.364;2022-11-21T05:49:01;7.80;99.90
12520;DHT22;6325;49.540;8.364;2022-11-21T05:51:38;8.20;99.90
12520;DHT22;6325;49.540;8.364;2022-11-21T05:54:18;8.60;99.90
12520;DHT22;6325;49.540;8.364;2022-11-21T05:56:52;7.90;99.90
12520;DHT22;6325;49.540;8.364;2022-11-21T05:59:30;8.00;99.90
12520;DHT22;6325;49.540;8.364;2022-11-21T06:02:14;8.00;99.90
12520;DHT22;6325;49.540;8.364;2022-11-21T06:05:01;8.30;99.90
12520;DHT22;6325;49.540;8.364;2022-11-21T06:07:35;8.50;99.90
12520;DHT22;6325;49.540;8.364;2022-11-21T06:10:07;8.20;99.90
12520;DHT22;6325;49.540;8.364;2022-11-21T06:12:43;8.00;99.90
12520;DHT22;6325;49.540;8.364;2022-11-21T06:15:16;8.90;99.90
12520;DHT22;6325;49.540;8.364;2022-11-21T06:18:05;8.10;99.90
12520;DHT22;6325;49.540;8.364;2022-11-21T06:20:35;8.10;99.90
12520;DHT22;6325;49.540;8.364;2022-11-21T06:23:16;8.40;99.90
12520;DHT22;6325;49.540;8.364;2022-11-21T06:25:51;8.10;99.90
12520;DHT22;6325;49.540;8.364;2022-11-21T06:28:28;8.60;99.90
12520;DHT22;6325;49.540;8.364;2022-11-21T06:30:59;8.10;99.90
12520;DHT22;6325;49.540;8.364;2022-11-21T06:33:29;8.40;99.90
12520;DHT22;6325;49.540;8.364;2022-11-21T06:36:00;8.20;99.90
12520;DHT22;6325;49.540;8.364;2022-11-21T06:38:30;8.20;99.90
12520;DHT22;6325;49.540;8.364;2022-11-21T06:40:57;8.70;99.90
12520;DHT22;6325;49.540;8.364;2022-11-21T06:43:24;8.20;99.90
12520;DHT22;6325;49.540;8.364;2022-11-21T06:46:05;8.40;99.90
12520;DHT22;6325;49.540;8.364;2022-11-21T06:48:34;8.70;99.90
12520;DHT22;6325;49.540;8.364;2022-11-21T06:51:03;8.10;99.90
12520;DHT22;6325;49.540;8.364;2022-11-21T06:53:35;8.70;99.90
12520;DHT22;6325;49.540;8.364;2022-11-21T06:56:03;7.60;99.90
12520;DHT22;6325;49.540;8.364;2022-11-21T06:58:30;7.50;99.90
12520;DHT22;6325;49.540;8.364;2022-11-21T07:00:57;8.20;99.90
12520;DHT22;6325;49.540;8.364;2022-11-21T07:03:27;8.30;99.90
12520;DHT22;6325;49.540;8.364;2022-11-21T07:05:55;8.50;99.90
12520;DHT22;6325;49.540;8.364;2022-11-21T07:08:26;8.10;99.90
12520;DHT22;6325;49.540;8.364;2022-11-21T07:11:04;8.40;99.90
12520;DHT22;6325;49.540;8.364;2022-11-21T07:13:32;7.60;99.90
12520;DHT22;6325;49.540;8.364;2022-11-21T07:16:02;8.40;99.90
12520;DHT22;6325;49.540;8.364;2022-11-21T07:18:30;8.60;99.90
12520;DHT22;6325;49.540;8.364;2022-11-21T07:20:58;7.40;99.90
12520;DHT22;6325;49.540;8.364;2022-11-21T07:23:25;8.40;99.90
12520;DHT22;6325;49.540;8.364;2022-11-21T07:25:58;8.20;99.90
12520;DHT22;6325;49.540;8.364;2022-11-21T07:28:25;8.50;99.90
12520;DHT22;6325;49.540;8.364;2022-11-21T07:30:57;7.90;99.90
12520;DHT22;6325;49.540;8.364;2022-11-21T07:33:24;8.50;99.90
12520;DHT22;6325;49.540;8.364;2022-11-21T07:35:54;8.20;99.90
12520;DHT22;6325;49.540;8.364;2022-11-21T07:38:29;7.90;99.90
12520;DHT22;6325;49.540;8.364;2022-11-21T07:40:56;8.10;99.90
12520;DHT22;6325;49.540;8.364;2022-11-21T07:43:28;8.40;99.90
12520;DHT22;6325;49.540;8.364;2022-11-21T07:45:58;7.90;99.90
12520;DHT22;6325;49.540;8.364;2022-11-21T07:48:25;7.70;99.90
12520;DHT22;6325;49.540;8.364;2022-11-21T07:50:53;7.30;99.90
12520;DHT22;6325;49.540;8.364;2022-11-21T07:53:20;8.30;99.90
12520;DHT22;6325;49.540;8.364;2022-11-21T07:55:52;8.40;99.90
12520;DHT22;6325;49.540;8.364;2022-11-21T07:58:23;7.80;99.90
12520;DHT22;6325;49.540;8.364;2022-11-21T08:00:51;8.30;99.90
12520;DHT22;6325;49.540;8.364;2022-11-21T08:03:19;7.30;99.90
12520;DHT22;6325;49.540;8.364;2022-11-21T08:05:47;7.70;99.90
12520;DHT22;6325;49.540;8.364;2022-11-21T08:08:14;7.80;99.90
12520;DHT22;6325;49.540;8.364;2022-11-21T08:10:45;7.70;99.90
12520;DHT22;6325;49.540;8.364;2022-11-21T08:13:17;8.10;99.90
12520;DHT22;6325;49.540;8.364;2022-11-21T08:15:50;7.60;99.90
12520;DHT22;6325;49.540;8.364;2022-11-21T08:18:20;7.20;99.90
12520;DHT22;6325;49.540;8.364;2022-11-21T08:20:51;7.70;99.90
12520;DHT22;6325;49.540;8.364;2022-11-21T08:23:20;7.70;99.90
12520;DHT22;6325;49.540;8.364;2022-11-21T08:25:50;7.60;99.90
12520;DHT22;6325;49.540;8.364;2022-11-21T08:28:19;8.30;99.90
12520;DHT22;6325;49.540;8.364;2022-11-21T08:30:52;7.80;99.90
12520;DHT22;6325;49.540;8.364;2022-11-21T08:33:19;7.90;99.90
12520;DHT22;6325;49.540;8.364;2022-11-21T08:35:48;7.40;99.90
12520;DHT22;6325;49.540;8.364;2022-11-21T08:38:21;8.20;99.90
12520;DHT22;6325;49.540;8.364;2022-11-21T08:40:50;8.10;99.90
12520;DHT22;6325;49.540;8.364;2022-11-21T08:43:33;8.30;99.90
12520;DHT22;6325;49.540;8.364;2022-11-21T08:46:00;8.50;99.90
12520;DHT22;6325;49.540;8.364;2022-11-21T08:48:27;9.00;99.90
12520;DHT22;6325;49.540;8.364;2022-11-21T08:50:56;8.20;99.90
12520;DHT22;6325;49.540;8.364;2022-11-21T08:53:23;8.30;99.90
12520;DHT22;6325;49.540;8.364;2022-11-21T08:55:50;8.00;99.90
12520;DHT22;6325;49.540;8.364;2022-11-21T08:58:19;9.10;99.90
12520;DHT22;6325;49.540;8.364;2022-11-21T09:00:51;8.80;99.90
12520;DHT22;6325;49.540;8.364;2022-11-21T09:03:20;8.80;99.90
12520;DHT22;6325;49.540;8.364;2022-11-21T09:05:48;8.30;99.90
12520;DHT22;6325;49.540;8.364;2022-11-21T09:08:17;9.20;99.90
12520;DHT22;6325;49.540;8.364;2022-11-21T09:10:44;9.30;99.90
12520;DHT22;6325;49.540;8.364;2022-11-21T09:13:11;8.80;99.90
12520;DHT22;6325;49.540;8.364;2022-11-21T09:15:41;9.70;99.90
12520;DHT22;6325;49.540;8.364;2022-11-21T09:18:27;9.50;99.90
12520;DHT22;6325;49.540;8.364;2022-11-21T09:20:54;8.90;99.90
12520;DHT22;6325;49.540;8.364;2022-11-21T09:23:22;9.20;99.90
12520;DHT22;6325;49.540;8.364;2022-11-21T09:25:49;9.10;99.90
12520;DHT22;6325;49.540;8.364;2022-11-21T09:28:16;9.20;99.90
12520;DHT22;6325;49.540;8.364;2022-11-21T09:30:43;9.20;99.90
12520;DHT22;6325;49.540;8.364;2022-11-21T09:33:12;9.10;99.90
12520;DHT22;6325;49.540;8.364;2022-11-21T09:35:41;9.40;99.90
12520;DHT22;6325;49.540;8.364;2022-11-21T09:38:08;9.40;99.90
12520;DHT22;6325;49.540;8.364;2022-11-21T09:40:35;10.30;99.90
12520;DHT22;6325;49.540;8.364;2022-11-21T09:43:25;9.60;99.90
12520;DHT22;6325;49.540;8.364;2022-11-21T09:46:00;9.50;99.90
12520;DHT22;6325;49.540;8.364;2022-11-21T09:48:31;9.60;99.90
12520;DHT22;6325;49.540;8.364;2022-11-21T09:51:03;9.60;99.90
12520;DHT22;6325;49.540;8.364;2022-11-21T09:53:34;10.00;99.90
12520;DHT22;6325;49.540;8.364;2022-11-21T09:56:05;9.50;99.90
12520;DHT22;6325;49.540;8.364;2022-11-21T09:58:37;9.60;99.90
12520;DHT22;6325;49.540;8.364;2022-11-21T10:01:10;9.50;99.90
12520;DHT22;6325;49.540;8.364;2022-11-21T10:03:40;9.50;99.90
12520;DHT22;6325;49.540;8.364;2022-11-21T10:06:17;10.30;99.90
12520;DHT22;6325;49.540;8.364;2022-11-21T10:08:54;9.80;99.90
12520;DHT22;6325;49.540;8.364;2022-11-21T10:11:32;9.20;99.90
12520;DHT22;6325;49.540;8.364;2022-11-21T10:14:30;10.30;99.90
12520;DHT22;6325;49.540;8.364;2022-11-21T10:17:10;9.80;99.90
12520;DHT22;6325;49.540;8.364;2022-11-21T10:20:11;10.60;99.90
12520;DHT22;6325;49.540;8.364;2022-11-21T10:23:00;9.90;99.90
12520;DHT22;6325;49.540;8.364;2022-11-21T10:25:36;10.00;99.90
12520;DHT22;6325;49.540;8.364;2022-11-21T10:28:11;10.00;99.90
12520;DHT22;6325;49.540;8.364;2022-11-21T10:30:42;10.60;99.90
12520;DHT22;6325;49.540;8.364;2022-11-21T10:33:14;10.00;99.90
12520;DHT22;6325;49.540;8.364;2022-11-21T10:35:47;9.80;99.90
12520;DHT22;6325;49.540;8.364;2022-11-21T10:38:23;10.50;99.90
12520;DHT22;6325;49.540;8.364;2022-11-21T10:40:55;10.20;99.90
12520;DHT22;6325;49.540;8.364;2022-11-21T10:43:33;10.50;99.90
12520;DHT22;6325;49.540;8.364;2022-11-21T10:46:21;9.90;99.90
12520;DHT22;6325;49.540;8.364;2022-11-21T10:48:54;10.20;99.90
12520;DHT22;6325;49.540;8.364;2022-11-21T10:51:33;10.10;99.90
12520;DHT22;6325;49.540;8.364;2022-11-21T10:54:06;10.70;99.90
12520;DHT22;6325;49.540;8.364;2022-11-21T10:56:55;10.40;99.90
12520;DHT22;6325;49.540;8.364;2022-11-21T10:59:26;10.00;99.90
12520;DHT22;6325;49.540;8.364;2022-11-21T11:02:21;11.10;99.90
12520;DHT22;6325;49.540;8.364;2022-11-21T11:04:48;10.80;99.90
12520;DHT22;6325;49.540;8.364;2022-11-21T11:07:36;10.40;99.90
12520;DHT22;6325;49.540;8.364;2022-11-21T11:10:15;10.20;99.90
12520;DHT22;6325;49.540;8.364;2022-11-21T11:30:06;10.60;99.90
12520;DHT22;6325;49.540;8.364;2022-11-21T11:34:09;10.70;99.90
12520;DHT22;6325;49.540;8.364;2022-11-21T11:40:16;10.70;99.90
12520;DHT22;6325;49.540;8.364;2022-11-21T11:43:09;10.40;99.90
12520;DHT22;6325;49.540;8.364;2022-11-21T11:49:20;10.10;99.90
12520;DHT22;6325;49.540;8.364;2022-11-21T11:52:20;11.20;99.90
12520;DHT22;6325;49.540;8.364;2022-11-21T11:58:39;10.80;99.90
12520;DHT22;6325;49.540;8.364;2022-11-21T13:13:42;12.60;99.90
12520;DHT22;6325;49.540;8.364;2022-11-21T13:17:02;12.30;99.90
12520;DHT22;6325;49.540;8.364;2022-11-21T13:22:53;11.60;99.90
12520;DHT22;6325;49.540;8.364;2022-11-21T13:25:42;11.70;99.90
12520;DHT22;6325;49.540;8.364;2022-11-21T13:37:59;11.60;99.90
12520;DHT22;6325;49.540;8.364;2022-11-21T13:40:39;11.50;99.90
12520;DHT22;6325;49.540;8.364;2022-11-21T13:51:08;11.80;99.90
12520;DHT22;6325;49.540;8.364;2022-11-21T13:56:59;11.20;99.90
12520;DHT22;6325;49.540;8.364;2022-11-21T14:00:20;10.70;99.90
12520;DHT22;6325;49.540;8.364;2022-11-21T14:09:33;10.80;99.90
12520;DHT22;6325;49.540;8.364;2022-11-21T14:46:37;10.10;99.90
12520;DHT22;6325;49.540;8.364;2022-11-21T14:54:22;10.20;99.90
12520;DHT22;6325;49.540;8.364;2022-11-21T14:59:58;10.20;99.90
12520;DHT22;6325;49.540;8.364;2022-11-21T15:03:14;10.10;99.90
12520;DHT22;6325;49.540;8.364;2022-11-21T15:06:12;10.50;99.90
12520;DHT22;6325;49.540;8.364;2022-11-21T15:09:09;9.50;99.90
12520;DHT22;6325;49.540;8.364;2022-11-21T15:12:25;9.90;99.90
12520;DHT22;6325;49.540;8.364;2022-11-21T15:15:39;9.30;99.90
12520;DHT22;6325;49.540;8.364;2022-11-21T15:22:18;10.10;99.90
12520;DHT22;6325;49.540;8.364;2022-11-21T15:29:01;9.70;99.90
12520;DHT22;6325;49.540;8.364;2022-11-21T15:32:27;9.80;99.90
12520;DHT22;6325;49.540;8.364;2022-11-21T15:39:04;9.10;99.90
12520;DHT22;6325;49.540;8.364;2022-11-21T15:41:58;9.30;99.90
12520;DHT22;6325;49.540;8.364;2022-11-21T15:45:26;9.20;99.90
12520;DHT22;6325;49.540;8.364;2022-11-21T15:48:34;9.20;99.90
12520;DHT22;6325;49.540;8.364;2022-11-21T16:26:24;8.50;99.90
12520;DHT22;6325;49.540;8.364;2022-11-21T17:23:43;7.40;99.90
12520;DHT22;6325;49.540;8.364;2022-11-21T17:27:48;7.70;99.90
12520;DHT22;6325;49.540;8.364;2022-11-21T17:33:00;7.80;99.90
12520;DHT22;6325;49.540;8.364;2022-11-21T18:13:37;8.30;99.90
12520;DHT22;6325;49.540;8.364;2022-11-21T18:17:59;8.00;99.90
12520;DHT22;6325;49.540;8.364;2022-11-21T18:22:45;8.10;99.90
12520;DHT22;6325;49.540;8.364;2022-11-21T18:26:10;8.50;99.90
12520;DHT22;6325;49.540;8.364;2022-11-21T18:31:38;7.80;99.90
12520;DHT22;6325;49.540;8.364;2022-11-21T18:34:11;7.70;99.90
12520;DHT22;6325;49.540;8.364;2022-11-21T18:36:47;8.10;99.90
12520;DHT22;6325;49.540;8.364;2022-11-21T20:51:44;7.90;99.90
12520;DHT22;6325;49.540;8.364;2022-11-21T20:55:07;7.90;99.90
